createdAt,value
2019-03-20T04:51:37.373Z,38.93
2019-03-20T04:54:08.169Z,74.90
2019-03-20T04:56:39.007Z,116.33
2019-03-20T04:59:09.746Z,95.93
2019-03-20T05:01:40.473Z,64.53
2019-03-20T05:04:11.001Z,39.33
2019-03-20T05:06:41.647Z,29.53
2019-03-20T05:09:12.272Z,24.67
2019-03-20T05:11:42.900Z,37.23
2019-03-20T05:14:13.543Z,32.97
2019-03-20T05:16:44.076Z,34.07
2019-03-20T05:19:14.702Z,28.07
2019-03-20T05:21:45.402Z,26.00
2019-03-20T05:24:16.169Z,24.03
2019-03-20T05:26:46.644Z,24.07
2019-03-20T05:29:17.131Z,22.70
2019-03-20T05:31:47.759Z,22.27
2019-03-20T05:34:18.317Z,21.50
2019-03-20T05:36:48.820Z,20.77
2019-03-20T05:39:19.353Z,23.53
2019-03-20T05:41:49.880Z,28.00
2019-03-20T05:44:21.638Z,31.40
2019-03-20T05:46:52.129Z,31.77
2019-03-20T05:49:22.617Z,35.47
2019-03-20T05:51:53.091Z,34.80
2019-03-20T05:54:23.653Z,29.30
2019-03-20T05:56:54.189Z,28.80
2019-03-20T05:59:24.672Z,27.80
2019-03-20T06:01:55.171Z,25.47
2019-03-20T06:04:25.647Z,24.10
2019-03-20T06:06:57.210Z,23.73
2019-03-20T06:09:27.683Z,25.07
2019-03-20T06:11:58.233Z,22.42
2019-03-20T06:14:28.712Z,21.73
2019-03-20T06:16:59.254Z,18.20
2019-03-20T06:19:29.740Z,18.75
2019-03-20T06:22:00.300Z,17.10
2019-03-20T06:24:30.857Z,14.87
2019-03-20T06:27:02.348Z,14.07
2019-03-20T06:29:32.908Z,14.55
2019-03-20T06:32:03.523Z,14.20
2019-03-20T06:34:34.074Z,14.00
2019-03-20T06:37:04.624Z,15.40
2019-03-20T06:39:35.267Z,15.50
2019-03-20T06:42:05.827Z,15.15
2019-03-20T06:44:36.323Z,16.57
2019-03-20T06:47:06.912Z,15.97
2019-03-20T06:49:37.550Z,16.43
2019-03-20T06:52:08.228Z,18.57
2019-03-20T06:54:38.871Z,17.17
2019-03-20T06:57:09.343Z,15.17
2019-03-20T06:59:43.168Z,14.50
2019-03-20T07:02:13.829Z,15.08
2019-03-20T07:05:14.813Z,17.98
2019-03-20T07:07:46.635Z,14.73
2019-03-20T07:10:23.347Z,14.85
2019-03-20T07:12:53.899Z,14.10
2019-03-20T07:15:24.497Z,15.35
2019-03-20T07:17:54.927Z,16.15
2019-03-20T07:20:26.378Z,15.25
2019-03-20T07:22:56.995Z,13.10
2019-03-20T07:25:27.580Z,18.17
2019-03-20T07:27:58.361Z,16.97
2019-03-20T07:30:28.915Z,13.45
2019-03-20T07:32:59.404Z,15.65
2019-03-20T07:35:29.889Z,14.43
2019-03-20T07:38:00.406Z,14.68
2019-03-20T07:40:31.118Z,14.40
2019-03-20T07:43:08.678Z,13.62
2019-03-20T07:45:35.147Z,14.47
2019-03-20T07:48:05.634Z,12.90
2019-03-20T07:50:36.312Z,12.53
2019-03-20T07:53:06.839Z,12.15
2019-03-20T07:55:37.373Z,12.63
2019-03-20T07:58:07.967Z,11.28
2019-03-20T08:00:38.559Z,11.43
2019-03-20T08:03:09.172Z,10.55
2019-03-20T08:05:39.706Z,14.93
2019-03-20T08:08:10.339Z,13.83
2019-03-20T08:10:40.865Z,12.53
2019-03-20T08:13:11.492Z,11.03
2019-03-20T08:15:42.150Z,35.30
2019-03-20T08:18:12.750Z,26.15
2019-03-20T08:20:43.505Z,11.90
2019-03-20T08:23:14.164Z,18.07
2019-03-20T08:25:45.069Z,21.02
2019-03-20T08:28:15.614Z,9.18
2019-03-20T08:30:46.241Z,15.58
2019-03-20T08:33:16.869Z,16.77
2019-03-20T08:35:47.455Z,44.15
2019-03-20T08:38:19.108Z,11.75
2019-03-20T08:40:49.902Z,13.78
2019-03-20T08:43:20.385Z,8.20
2019-03-20T08:45:50.959Z,13.32
2019-03-20T08:48:21.490Z,6.78
2019-03-20T08:50:52.121Z,6.35
2019-03-20T08:53:22.651Z,8.00
2019-03-20T08:55:53.351Z,7.67
2019-03-20T08:58:23.923Z,9.58
2019-03-20T09:00:54.551Z,13.25
2019-03-20T09:03:25.030Z,6.70
2019-03-20T09:05:55.711Z,8.25
2019-03-20T09:08:29.664Z,9.80
2019-03-20T09:10:58.420Z,9.35
2019-03-20T09:13:28.909Z,10.58
2019-03-20T09:15:59.484Z,8.98
2019-03-20T09:18:29.991Z,9.55
2019-03-20T09:21:00.753Z,6.35
2019-03-20T09:23:31.294Z,5.35
2019-03-20T09:26:01.804Z,13.40
2019-03-20T09:28:32.388Z,8.78
2019-03-20T09:31:02.883Z,6.22
2019-03-20T09:33:33.502Z,4.78
2019-03-20T09:36:04.228Z,6.50
2019-03-20T09:38:43.081Z,5.90
2019-03-20T09:41:07.123Z,5.87
2019-03-20T09:43:37.680Z,4.60
2019-03-20T09:46:08.504Z,5.90
2019-03-20T09:48:38.983Z,4.72
2019-03-20T09:51:09.457Z,5.53
2019-03-20T09:53:40.005Z,4.78
2019-03-20T09:56:10.628Z,4.50
2019-03-20T09:58:41.191Z,4.92
2019-03-20T10:01:11.687Z,6.47
2019-03-20T10:03:42.178Z,4.95
2019-03-20T10:06:12.707Z,5.80
2019-03-20T10:08:53.586Z,5.53
2019-03-20T10:11:15.560Z,5.83
2019-03-20T10:13:46.193Z,4.60
2019-03-20T10:16:16.964Z,3.98
2019-03-20T10:18:47.458Z,5.22
2019-03-20T10:21:17.995Z,3.40
2019-03-20T10:23:48.828Z,6.05
2019-03-20T10:26:19.717Z,3.50
2019-03-20T10:28:50.297Z,5.12
2019-03-20T10:31:20.779Z,4.00
2019-03-20T10:33:52.389Z,4.67
2019-03-20T10:36:23.118Z,4.35
2019-03-20T10:38:53.766Z,3.35
2019-03-20T10:41:25.920Z,3.58
2019-03-20T10:43:56.979Z,3.25
2019-03-20T10:46:27.504Z,4.97
2019-03-20T10:48:58.014Z,2.50
2019-03-20T10:51:28.662Z,3.45
2019-03-20T10:53:59.290Z,2.67
2019-03-20T10:56:29.775Z,1.92
2019-03-20T10:59:00.366Z,2.30
2019-03-20T11:01:41.827Z,1.98
2019-03-20T11:04:03.252Z,1.70
2019-03-20T11:06:33.894Z,3.00
2019-03-20T11:09:17.705Z,2.15
2019-03-20T11:11:39.730Z,2.20
2019-03-20T11:14:10.404Z,2.20
2019-03-20T11:16:41.031Z,2.37
2019-03-20T11:19:11.562Z,1.82
2019-03-20T11:21:43.116Z,2.65
2019-03-20T11:24:15.335Z,2.62
2019-03-20T11:26:45.987Z,2.40
2019-03-20T11:29:21.587Z,2.72
2019-03-20T11:31:48.866Z,3.35
2019-03-20T11:34:19.466Z,3.02
2019-03-20T11:36:51.020Z,2.83
2019-03-20T11:39:29.590Z,2.62
2019-03-20T11:41:53.929Z,3.42
2019-03-20T11:44:24.495Z,2.98
2019-03-20T11:46:55.113Z,3.02
2019-03-20T11:49:25.834Z,3.12
2019-03-20T11:51:56.453Z,3.10
2019-03-20T11:54:26.942Z,2.90
2019-03-20T11:56:57.613Z,3.58
2019-03-20T11:59:28.260Z,4.00
2019-03-20T12:01:58.927Z,3.62
2019-03-20T12:04:30.892Z,3.75
2019-03-20T12:07:01.425Z,3.40
2019-03-20T12:09:41.034Z,3.50
2019-03-20T12:12:05.418Z,3.33
2019-03-20T12:14:36.041Z,3.58
2019-03-20T12:17:06.583Z,3.67
2019-03-20T12:19:44.928Z,2.80
2019-03-20T12:22:09.328Z,2.70
2019-03-20T12:24:40.055Z,3.60
2019-03-20T12:27:15.380Z,3.80
2019-03-20T12:29:44.456Z,3.95
2019-03-20T12:32:14.986Z,3.12
2019-03-20T12:34:45.617Z,2.85
2019-03-20T12:37:16.108Z,2.95
2019-03-20T12:39:53.201Z,3.58
2019-03-20T12:42:18.935Z,3.22
2019-03-20T12:44:49.432Z,2.80
2019-03-20T12:47:20.013Z,2.80
2019-03-20T12:49:50.644Z,2.60
2019-03-20T12:52:21.171Z,2.98
2019-03-20T12:54:51.837Z,3.20
2019-03-20T12:57:22.449Z,2.75
2019-03-20T12:59:53.190Z,3.12
2019-03-20T13:02:23.675Z,2.72
2019-03-20T13:04:54.234Z,2.10
2019-03-20T13:07:24.875Z,2.98
2019-03-20T13:10:03.050Z,2.22
2019-03-20T13:12:27.670Z,4.00
2019-03-20T13:14:58.218Z,2.12
2019-03-20T13:17:28.842Z,2.72
2019-03-20T13:19:59.472Z,2.70
2019-03-20T13:22:31.536Z,3.15
2019-03-20T13:25:02.070Z,3.00
2019-03-20T13:27:33.949Z,2.80
2019-03-20T13:30:20.036Z,3.08
2019-03-20T13:32:46.195Z,3.00
2019-03-20T13:35:16.674Z,2.85
2019-03-20T13:37:47.221Z,3.35
2019-03-20T13:40:17.851Z,3.12
2019-03-20T13:42:48.395Z,2.65
2019-03-20T13:45:21.088Z,3.12
2019-03-20T13:47:53.744Z,3.47
2019-03-20T13:50:37.719Z,2.98
2019-03-20T13:53:21.261Z,3.37
2019-03-20T13:55:59.031Z,3.45
2019-03-20T13:58:29.758Z,3.90
2019-03-20T14:01:00.266Z,4.08
2019-03-20T14:03:33.717Z,3.02
2019-03-20T14:06:04.327Z,2.75
2019-03-20T14:08:34.984Z,3.02
2019-03-20T14:11:05.476Z,3.90
2019-03-20T14:13:35.964Z,3.20
2019-03-20T14:16:06.727Z,2.72
2019-03-20T14:18:37.225Z,3.22
2019-03-20T14:21:07.779Z,2.95
2019-03-20T14:23:38.273Z,2.62
2019-03-20T14:26:08.762Z,2.77
2019-03-20T14:28:39.325Z,3.12
2019-03-20T14:31:10.031Z,4.42
2019-03-20T14:33:40.510Z,2.40
2019-03-20T14:36:12.104Z,2.83
2019-03-20T14:38:42.662Z,2.65
2019-03-20T14:41:21.194Z,3.27
2019-03-20T14:43:45.523Z,2.65
2019-03-20T14:46:16.115Z,3.58
2019-03-20T14:48:46.753Z,3.55
2019-03-20T14:51:19.405Z,3.60
2019-03-20T14:53:49.945Z,2.80
2019-03-20T14:56:21.959Z,3.05
2019-03-20T14:58:52.496Z,2.98
2019-03-20T15:01:26.936Z,2.27
2019-03-20T15:03:58.939Z,3.02
2019-03-20T15:06:29.228Z,3.10
2019-03-20T15:08:59.967Z,2.52
2019-03-20T15:11:30.589Z,2.45
2019-03-20T15:14:01.224Z,3.27
2019-03-20T15:16:31.770Z,3.20
2019-03-20T15:19:02.529Z,2.83
2019-03-20T15:21:33.057Z,2.60
2019-03-20T15:24:04.735Z,2.87
2019-03-20T15:26:35.221Z,3.22
2019-03-20T15:29:05.771Z,3.02
2019-03-20T15:31:36.332Z,2.70
2019-03-20T15:34:06.858Z,2.20
2019-03-20T15:36:37.489Z,8.80
2019-03-20T15:39:08.354Z,3.27
2019-03-20T15:41:38.860Z,2.95
2019-03-20T15:44:09.919Z,3.50
2019-03-20T15:46:40.436Z,2.90
2019-03-20T15:49:10.967Z,2.95
2019-03-20T15:51:41.499Z,7.50
2019-03-20T15:54:11.992Z,3.72
2019-03-20T15:56:43.084Z,3.70
2019-03-20T15:59:13.654Z,3.77
2019-03-20T16:01:44.236Z,6.03
2019-03-20T16:04:14.777Z,5.12
2019-03-20T16:06:46.356Z,12.05
2019-03-20T16:09:16.835Z,7.33
2019-03-20T16:11:47.476Z,8.63
2019-03-20T16:14:18.009Z,6.58
2019-03-20T16:16:48.494Z,7.03
2019-03-20T16:19:19.067Z,7.35
2019-03-20T16:21:49.710Z,4.83
2019-03-20T16:24:20.242Z,8.60
2019-03-20T16:26:50.737Z,15.83
2019-03-20T16:29:21.376Z,9.98
2019-03-20T16:31:51.937Z,12.20
2019-03-20T16:34:22.571Z,23.73
2019-03-20T16:36:53.056Z,12.40
2019-03-20T16:39:23.832Z,20.08
2019-03-20T16:41:54.419Z,19.42
2019-03-20T16:44:24.997Z,25.35
2019-03-20T16:46:55.638Z,15.72
2019-03-20T16:49:26.172Z,24.18
2019-03-20T16:51:56.697Z,26.35
2019-03-20T16:54:28.250Z,13.08
2019-03-20T16:56:58.821Z,31.48
2019-03-20T16:59:29.393Z,32.48
2019-03-20T17:01:59.939Z,17.12
2019-03-20T17:04:30.645Z,15.38
2019-03-20T17:07:01.210Z,18.32
2019-03-20T17:09:31.772Z,16.10
2019-03-20T17:12:02.372Z,40.10
2019-03-20T17:14:32.860Z,32.75
2019-03-20T17:17:03.880Z,44.95
2019-03-20T17:19:34.374Z,46.53
2019-03-20T17:22:04.911Z,59.45
2019-03-20T17:24:35.445Z,81.60
2019-03-20T17:27:06.172Z,114.42
2019-03-20T17:29:36.756Z,113.50
2019-03-20T17:32:07.259Z,72.20
2019-03-20T17:34:37.822Z,79.20
2019-03-20T17:37:08.405Z,136.40
2019-03-20T17:39:38.922Z,69.32
2019-03-20T17:42:09.437Z,49.98
2019-03-20T17:44:39.943Z,38.28
2019-03-20T17:47:10.522Z,61.23
2019-03-20T17:49:41.025Z,46.90
2019-03-20T17:52:11.702Z,228.83
2019-03-20T17:54:42.278Z,103.95
2019-03-20T17:57:12.957Z,70.25
2019-03-20T17:59:43.588Z,81.78
2019-03-20T18:02:23.666Z,104.90
2019-03-20T18:04:46.590Z,153.40
2019-03-20T18:07:17.231Z,155.32
2019-03-20T18:09:47.862Z,178.68
2019-03-20T18:12:18.386Z,175.00
2019-03-20T18:14:48.922Z,356.32
2019-03-20T18:17:19.439Z,143.45
2019-03-20T18:19:49.984Z,162.27
2019-03-20T18:22:20.613Z,145.90
2019-03-20T18:24:51.267Z,139.30
2019-03-20T18:27:21.762Z,93.70
2019-03-20T18:29:52.518Z,103.65
2019-03-20T18:32:23.255Z,107.37
2019-03-20T18:34:53.886Z,123.75
2019-03-20T18:37:24.524Z,142.45
2019-03-20T18:39:55.058Z,282.40
2019-03-20T18:42:25.589Z,184.82
2019-03-20T18:44:56.220Z,103.67
2019-03-20T18:47:26.955Z,134.85
2019-03-20T18:49:57.486Z,107.83
2019-03-20T18:52:28.116Z,78.05
2019-03-20T18:54:58.749Z,181.02
2019-03-20T18:57:29.333Z,175.70
2019-03-20T19:00:00.357Z,144.13
2019-03-20T19:02:31.159Z,107.27
